Tiempo atmosférico en la estación meteorológica de Badajoz, Badajoz (175 m.)



Fecha
DESCASC
Temp. máxima en grados centígrados (hora)
DESCASC
Temp. mínima en grados centígrados (hora)
DESCASC
Temp. media en grados centígrados
DESCASC
Racha de viento máxima en m/sg (hora)
DESCASC
Velocidad máxima media en intervalos de 10 minutos(hora)
DESCASC
Precipitaciones diarias en mm
DESCASC
Precipitaciones de 00:00 a 06:00 en mm
DESCASC
Precipitaciones de 06:00 a 12:00 en mm
DESCASC
Precipitaciones de 12:00 a 18:00 en mm
DESCASC
Precipitaciones de 18:00 a 24:00 en mm
DESCASC
15-01-2021 11.7 (17:00) -2.8 (-00:0) 4.4 3.33 (15:50) 1.39 (15:20) 0 0 0 0 0
14-01-2021 10.8 (17:00) -3.2 (05:20) 3.8 2.22 (14:50) 1.39 (20:00) 0 0 0 0 0
13-01-2021 13.7 (16:20) -5.2 (-00:0) 4.3 2.78 (11:50) 1.39 (11:40) 0 0 0 0 0
17-01-2021 15.7 (16:30) -3.7 (-00:0) 6 3.61 (12:30) 1.67 (12:30) 0 0 0 0 0
16-01-2021 13.9 (16:30) -3.4 (-00:0) 5.2 3.06 (17:00) 1.67 (17:00) 0 0 0 0 0
05-01-2021 3.6 (18:10) -2.7 (-00:0) 0.4 4.72 (14:20) 1.94 (15:40) 0 0 0 0 0
12-01-2021 11.3 (16:10) -4.8 (-00:0) 3.3 3.33 (12:10) 2.22 (11:00) 0 0 0 0 0
18-01-2021 16.1 (16:50) -3 (-00:0) 6.6 4.44 (13:30) 2.5 (13:10) 0 0 0 0 0
30-12-2020 13.4 (16:10) -0.8 (-00:0) 6.3 5 (01:40) 3.33 (02:40) 0 0 0 0 0
03-01-2021 11.3 (16:40) -3.3 (-00:0) 4 5.28 (23:30) 3.33 (17:00) 0 0 0 0 0
19-01-2021 11.1 (15:50) -3.4 (-00:0) 3.9 6.11 (22:20) 3.61 (22:20) 0 0 0 0 0
02-01-2021 12.7 (16:20) -1.3 (-00:0) 5.7 6.39 (01:20) 3.89 (01:30) 0 0 0 0 0
26-01-2021 17.8 (16:50) 13.4 (00:00) 15.6 6.39 (13:30) 4.17 (12:50) 0 0 0 0 0
04-01-2021 11.3 (16:20) 0.4 (00:00) 5.9 7.5 (15:40) 4.17 (15:40) 0 0 0 0 0
11-01-2021 11.4 (15:20) -1.2 (-00:0) 5.1 7.22 (13:30) 4.72 (04:10) 0 0 0 0 0
06-01-2021 8.7 (16:10) -1.7 (-00:0) 3.5 6.67 (22:00) 5 (21:50) 0 0 0 0 0
07-01-2021 9.9 (15:30) 3.2 (00:00) 6.5 7.22 (12:20) 5 (12:10) 0 0 0 0 0
31-12-2020 13.3 (16:20) -0.7 (-00:0) 6.3 10.28 (17:20) 5.28 (16:30) 0.4 0 0 0 0.4
09-01-2021 4.8 (11:30) 2.3 (00:00) 3.6 8.33 (05:40) 5.83 (01:00) 2.4 0 0 1.6 0.8
20-01-2021 15.7 (13:50) 9.3 (00:00) 12.5 13.06 (14:30) 6.11 (14:30) 26 1 21.2 1.4 2.4
01-01-2021 10.5 (15:30) 3.1 (00:00) 6.8 11.11 (13:30) 6.39 (13:30) 0 0 0 0 0
10-01-2021 10.8 (15:20) 0.4 (23:00) 5.6 9.44 (16:40) 6.67 (17:10) 0 0 0 0 0
29-12-2020 13.2 (14:20) 3.6 (00:00) 8.4 11.39 (13:40) 6.67 (13:40) 0.6 0.6 0 0 0
23-01-2021 13.7 (19:10) 7.4 (00:00) 10.5 11.94 (14:10) 6.67 (14:10) 3.8 0 0 2.6 1.2
25-01-2021 17.6 (14:20) 11.8 (00:00) 14.7 12.5 (13:00) 6.94 (16:40) 2.2 0.6 1.4 0.2 0
28-12-2020 13.8 (15:00) 6.2 (00:00) 10 13.89 (06:30) 7.22 (03:10) 1.4 0.4 1 0 0
08-01-2021 7.4 (14:10) 2.1 (00:00) 4.8 11.11 (17:20) 7.78 (11:20) 2.6 0 0 2 0.6
21-01-2021 15.7 (15:10) 10.7 (00:00) 13.2 15 (17:20) 7.78 (17:20) 6.2 3.2 0 0.6 2.4
24-01-2021 15.8 (14:40) 10 (00:00) 12.9 13.61 (01:30) 7.78 (01:30) 3.6 3.6 0 0 0
22-01-2021 14.9 (14:40) 8.1 (00:00) 11.5 18.06 (14:50) 11.39 (14:50) 2 0.6 0 1.4 0

Gráficas

Temp. máximas Temp. mínimas Temp. medias Precipitaciones Rachas de viento máximas Velocidades máximas media en intervalos de 10 minutos

Datos horarios

Fecha y hora oficial Temperatura (ºC) Velocidad del viento (km/h) Dirección del viento Racha (km/h) Dirección de racha Precipitación (mm) Presión (hPa) Tendencia (hPa) Humedad (%)
2021-01-26 23:00:00 15.5 3 Oeste 6 Sudeste 0 -- -- 97
2021-01-26 22:00:00 15.8 2 Sur 7 Sudoeste 0 -- -- 96
2021-01-26 21:00:00 16 3 Oeste 10 Sudoeste 0 -- -- 95
2021-01-26 20:00:00 16.4 4 Sudoeste 14 Sudoeste 0 -- -- 93
2021-01-26 19:00:00 16.9 5 Oeste 16 Oeste 0 -- -- 92
2021-01-26 18:00:00 17.2 6 Sudoeste 16 Sudoeste 0 -- -- 95
2021-01-26 17:00:00 17.8 8 Oeste 19 Oeste 0 -- -- 90
2021-01-26 16:00:00 16.9 9 Sudoeste 14 Sudoeste 0 -- -- 94
2021-01-26 15:00:00 16.3 7 Sudoeste 19 Sudoeste 0 -- -- 95
2021-01-26 14:00:00 16.6 13 Sudoeste 23 Sudoeste 0 -- -- 93
2021-01-26 13:00:00 16.5 12 Sudoeste 22 Sudoeste 0 -- -- 93
2021-01-26 12:00:00 15.6 11 Sudoeste 22 Sudoeste 0 -- -- 99
2021-01-26 11:00:00 14.4 10 Sudoeste 17 Sudoeste 0 -- -- 100
2021-01-26 10:00:00 13.9 8 Sudoeste 17 Sudoeste 0 -- -- 100
2021-01-26 09:00:00 13.6 6 Sudoeste 18 Sudoeste 0 -- -- 100
2021-01-26 08:00:00 13.5 12 Sudoeste 18 Sudoeste 0 -- -- 99
2021-01-26 07:00:00 13.5 6 Sudoeste 12 Sudoeste 0 -- -- 99
2021-01-26 06:00:00 13.5 8 Sudoeste 17 Sudoeste 0 -- -- 99
2021-01-26 05:00:00 13.4 7 Sudoeste 18 Sudoeste 0 -- -- 99
2021-01-26 04:00:00 13.4 6 Sur 14 Sudoeste 0 -- -- 98
2021-01-26 03:00:00 13.6 7 Sudoeste 16 Sudoeste 0 -- -- 95
2021-01-26 02:00:00 13.7 8 Sudoeste 19 Sudoeste 0 -- -- 93
2021-01-26 01:00:00 13.8 11 Sudoeste 18 Sudoeste 0 -- -- 92
2021-01-26 00:00:00 13.9 7 Sudoeste 13 Sudoeste 0 -- -- 92
2021-01-25 23:00:00 14.1 4 Sudoeste 12 Sudoeste 0 -- -- 91
2021-01-25 22:00:00 14.3 6 Oeste 25 Oeste 0 -- -- 89
2021-01-25 21:00:00 14.7 14 Oeste 28 Oeste 0 -- -- 89
2021-01-25 20:00:00 14.9 10 Oeste 27 Oeste 0 -- -- 90
2021-01-25 19:00:00 14.9 10 Oeste 31 Oeste 0 -- -- 93
2021-01-25 18:00:00 15.9 17 Oeste 39 Oeste 0 -- -- 87
2021-01-25 17:00:00 17 21 Oeste 42 Oeste 0 -- -- 81
2021-01-25 16:00:00 17 18 Oeste 39 Sudoeste 0 -- -- 80
2021-01-25 15:00:00 16.9 18 Oeste 39 Oeste 0 -- -- 80
2021-01-25 14:00:00 17.1 16 Oeste 35 Oeste 0 -- -- 79
2021-01-25 13:00:00 16.4 19 Oeste 45 Oeste 0.2 -- -- 80
2021-01-25 12:00:00 16.2 22 Oeste 40 Oeste 0 -- -- 86
2021-01-25 11:00:00 14.4 12 Oeste 27 Sudoeste 0.2 -- -- 99
2021-01-25 10:00:00 13.7 14 Sudoeste 27 Sudoeste 0.8 -- -- 99
2021-01-25 09:00:00 13.1 13 Sudoeste 26 Sudoeste 0.2 -- -- 99
2021-01-25 08:00:00 12.8 12 Sudoeste 23 Sur 0 -- -- 99
2021-01-25 07:00:00 12.6 12 Sur 23 Sur 0.2 -- -- 98
2021-01-25 06:00:00 12.6 11 Sur 22 Sudoeste 0 -- -- 98
2021-01-25 05:00:00 12.4 10 Sur 23 Sur 0 -- -- 99
2021-01-25 04:00:00 12 12 Sudoeste 21 Sur 0.2 -- -- 99
2021-01-25 03:00:00 11.9 10 Sudoeste 20 Sudoeste -- -- -- 98
2021-01-25 02:00:00 11.8 5 Sudoeste 14 Sudoeste 0.2 -- -- 97
2021-01-25 01:00:00 12.1 8 Sudoeste 17 Sudoeste 0 -- -- 93
2021-01-25 00:00:00 12.1 10 Sudoeste 23 Sur 0 -- -- 93
2021-01-24 23:00:00 12.2 11 Sudoeste 22 Sudoeste 0 -- -- 92
2021-01-24 22:00:00 12.2 9 Sudoeste 18 Sudoeste 0 -- -- 92
2021-01-24 21:00:00 11.9 6 Sudoeste 10 Sudoeste 0 -- -- 91
2021-01-24 20:00:00 12.1 6 Sudoeste 11 Oeste 0 -- -- 89
2021-01-24 19:00:00 12.7 7 Sudoeste 13 Sudoeste 0 -- -- 83
2021-01-24 18:00:00 13.8 8 Sudoeste 22 Sudoeste 0 -- -- 77
2021-01-24 17:00:00 15 12 Oeste 24 Sudoeste 0 -- -- 71
2021-01-24 16:00:00 15 11 Oeste 22 Oeste 0 -- -- 72
2021-01-24 15:00:00 15.2 14 Oeste 27 Oeste 0 -- -- 71
2021-01-24 14:00:00 15.6 15 Oeste 26 Sudoeste 0 -- -- 71
2021-01-24 13:00:00 14.2 6 Noroeste 23 Noroeste 0 -- -- 85
2021-01-24 12:00:00 13.3 12 Noroeste 23 Oeste 0 -- -- 84
2021-01-24 11:00:00 12.1 8 Oeste 22 Oeste 0 -- -- 91
2021-01-24 10:00:00 10.4 4 Sudoeste 13 Sudoeste 0 -- -- 96
2021-01-24 09:00:00 10.1 4 Sudoeste 16 Oeste 0 -- -- 94
2021-01-24 08:00:00 10.6 9 Oeste 20 Oeste 0 -- -- 93
2021-01-24 07:00:00 11.1 9 Oeste 22 Noroeste 0 -- -- 91
2021-01-24 06:00:00 11.3 10 Oeste 23 Oeste 0 -- -- 94
2021-01-24 05:00:00 10.9 5 Sudoeste 16 Sudoeste 0 -- -- 95
2021-01-24 04:00:00 11.5 8 Sudoeste 28 Oeste 0 -- -- 93
2021-01-24 03:00:00 12.3 12 Oeste 27 Oeste 0 -- -- 92
2021-01-24 02:00:00 12.4 15 Oeste 49 Noroeste 3.2 -- -- 96
2021-01-24 01:00:00 13.6 18 Sudoeste 32 Sudoeste 0.4 -- -- 99
2021-01-24 00:00:00 13.6 17 Sudoeste 31 Sudoeste 0.4 -- -- 97
2021-01-23 23:00:00 13.6 17 Sudoeste 31 Sudoeste 0 -- -- 97
2021-01-23 22:00:00 13.6 15 Sudoeste 31 Sudoeste 0.2 -- -- 96
2021-01-23 21:00:00 13.6 18 Sudoeste 32 Sudoeste 0.2 -- -- 97
2021-01-23 20:00:00 13.5 17 Sudoeste 37 Sudoeste 0 -- -- 97
2021-01-23 19:00:00 13.6 17 Sudoeste 35 Sudoeste 0.4 -- -- 98
2021-01-23 18:00:00 13.1 17 Sudoeste 38 Sudoeste 0.4 -- -- 99
2021-01-23 17:00:00 12.5 19 Sudoeste 39 Sur 0.6 -- -- 98
2021-01-23 16:00:00 12.2 19 Sudoeste 40 Sudoeste 0.4 -- -- 98
2021-01-23 15:00:00 12.2 21 Sudoeste 43 Sudoeste 0.4 -- -- 97
2021-01-23 14:00:00 12 20 Sudoeste 36 Sur 0.6 -- -- 96
2021-01-23 13:00:00 12.6 18 Sudoeste 32 Sudoeste 0.2 -- -- 90
2021-01-23 12:00:00 11.7 14 Sudoeste 28 Sur 0 -- -- 94
2021-01-23 11:00:00 10.6 14 Sudoeste 28 Sudoeste 0 -- -- 98
2021-01-23 10:00:00 9.8 10 Sur 21 Sudoeste 0 -- -- 99
2021-01-23 09:00:00 9.1 13 Sudoeste 25 Sudoeste 0 -- -- 99
2021-01-23 08:00:00 8.8 13 Sudoeste 26 Sudoeste 0 -- -- 100
2021-01-23 07:00:00 8.4 11 Sudoeste 22 Sudoeste 0 -- -- 100
2021-01-23 06:00:00 8.2 11 Sudoeste 22 Sudoeste 0 -- -- 99
2021-01-23 05:00:00 8 9 Sudoeste 19 Sudoeste 0 -- -- 99
2021-01-23 04:00:00 7.8 8 Sur 19 Sudoeste 0 -- -- 99
2021-01-23 03:00:00 7.4 7 Sudoeste 14 Sudoeste 0 -- -- 98
2021-01-23 02:00:00 7.5 7 Sudoeste 15 Sudoeste 0 -- -- 98
2021-01-23 01:00:00 7.5 6 Sudoeste 14 Sudoeste 0 -- -- 96
2021-01-23 00:00:00 8.1 6 Sudoeste 14 Sudoeste 0 -- -- 95
2021-01-22 23:00:00 9.1 5 Sudoeste 22 Sudoeste 0 -- -- 92
2021-01-22 22:00:00 9.8 12 Sudoeste 20 Sudoeste 0 -- -- 88
2021-01-22 21:00:00 10.1 7 Sudoeste 13 Sudoeste 0 -- -- 86
2021-01-22 20:00:00 10.8 8 Oeste 26 Oeste 0 -- -- 83
2021-01-22 19:00:00 10.6 5 Oeste 17 Oeste 0 -- -- 84
2021-01-22 18:00:00 11.8 7 Oeste 24 Oeste 0 -- -- 78
2021-01-22 17:00:00 12.3 16 Noroeste 36 Oeste 0 -- -- 76
2021-01-22 16:00:00 12.4 23 Oeste 45 Noroeste 0.2 -- -- 74
2021-01-22 15:00:00 10.3 27 Oeste 65 Noroeste 0.8 -- -- 85
2021-01-22 14:00:00 13.2 30 Oeste 64 Noroeste 0.2 -- -- 73
2021-01-22 13:00:00 12.7 29 Oeste 64 Oeste 0.2 -- -- 80
2021-01-22 12:00:00 13 25 Oeste 57 Oeste 0 -- -- 76
2021-01-22 11:00:00 12.3 23 Oeste 50 Oeste 0 -- -- 79
2021-01-22 10:00:00 11.1 23 Oeste 43 Oeste 0 -- -- 84
2021-01-22 09:00:00 11.1 21 Sudoeste 42 Sudoeste 0 -- -- 78
2021-01-22 08:00:00 11.6 23 Oeste 53 Oeste 0 -- -- 77
2021-01-22 07:00:00 12.2 28 Oeste 49 Oeste 0 -- -- 78
2021-01-22 06:00:00 12.7 22 Oeste 56 Oeste 0 -- -- 80
2021-01-22 05:00:00 13.2 23 Oeste 49 Sudoeste 0 -- -- 83
2021-01-22 04:00:00 13.7 21 Sudoeste 40 Sudoeste 0 -- -- 88
2021-01-22 03:00:00 13.5 14 Oeste 30 Sudoeste 0 -- -- 94
2021-01-22 02:00:00 13.9 16 Sudoeste 40 Sudoeste 0.4 -- -- 97
2021-01-22 01:00:00 13.7 15 Sudoeste 35 Sudoeste 0.2 -- -- 99
2021-01-22 00:00:00 13.5 16 Sudoeste 33 Sudoeste 0.2 -- -- 99
2021-01-21 23:00:00 12.9 15 Sudoeste 34 Sur 0.6 -- -- 98
2021-01-21 22:00:00 12.8 16 Sudoeste 38 Sudoeste 0.4 -- -- 98
2021-01-21 21:00:00 12.8 14 Sudoeste 34 Sur 1 -- -- 97
2021-01-21 20:00:00 12.8 17 Sur 38 Sudoeste 0 -- -- 96
2021-01-21 19:00:00 13.4 19 Sudoeste 40 Sudoeste 0.2 -- -- 91
2021-01-21 18:00:00 14.3 23 Sudoeste 54 Sudoeste 0 -- -- 82
2021-01-21 17:00:00 15.1 23 Sudoeste 49 Sudoeste 0 -- -- 77
2021-01-21 16:00:00 15.6 23 Sudoeste 45 Sudoeste 0 -- -- 77
2021-01-21 15:00:00 15.6 22 Sudoeste 47 Sudoeste 0 -- -- 81
2021-01-21 14:00:00 14.3 16 Sudoeste 36 Sudoeste 0.6 -- -- 93
2021-01-21 13:00:00 14.7 19 Sudoeste 39 Sudoeste 0 -- -- 89
2021-01-21 12:00:00 13.2 20 Sudoeste 40 Sudoeste 0 -- -- 93
2021-01-21 11:00:00 12.1 15 Sudoeste 28 Sudoeste 0 -- -- 96
2021-01-21 10:00:00 11.5 12 Sudoeste 27 Sudoeste 0 -- -- 97
2021-01-21 09:00:00 11 10 Sudoeste 21 Sudoeste 0 -- -- 99
2021-01-21 08:00:00 10.9 7 Sudoeste 16 Sudoeste 0 -- -- 99
2021-01-21 07:00:00 10.9 7 Sudoeste 17 Sudoeste 0 -- -- 98
2021-01-21 06:00:00 10.9 10 Sur 18 Sudoeste 0 -- -- 98
2021-01-21 05:00:00 10.9 12 Sudoeste 24 Sudoeste 0 -- -- 98
2021-01-21 04:00:00 11.1 10 Sudoeste 17 Sudoeste 0.6 -- -- 99
2021-01-21 03:00:00 11.1 9 Sudoeste 18 Sudoeste 2.6 -- -- 98
2021-01-21 02:00:00 11 11 Sudoeste 20 Sudoeste 0 -- -- 97
2021-01-21 01:00:00 11.2 12 Sudoeste 23 Sudoeste 0 -- -- 97
2021-01-21 00:00:00 11.3 7 Sudoeste 18 Sudoeste 0 -- -- 97
2021-01-20 23:00:00 11.2 10 Sudoeste 19 Sudoeste 0 -- -- 98
2021-01-20 22:00:00 11 7 Sur 17 Sudoeste 0 -- -- 96
2021-01-20 21:00:00 11.4 8 Sudoeste 27 Sudoeste 1 -- -- 96
2021-01-20 20:00:00 11.8 12 Sudoeste 28 Sudoeste 1.4 -- -- 94
2021-01-20 19:00:00 12 14 Sudoeste 27 Sudoeste 0 -- -- 91
2021-01-20 18:00:00 12.6 11 Sudoeste 34 Sudoeste 0.2 -- -- 94
2021-01-20 17:00:00 13.3 14 Sudoeste 29 Sudoeste 0 -- -- 92
2021-01-20 16:00:00 13.2 14 Sudoeste 28 Sur 0.2 -- -- 92
2021-01-20 15:00:00 13 15 Sudoeste 47 Sudoeste 1 -- -- 91
2021-01-20 14:00:00 15.5 17 Sudoeste 35 Sudoeste 0 -- -- 77
2021-01-20 13:00:00 13.9 18 Sudoeste 35 Sudoeste 0 -- -- 87
2021-01-20 12:00:00 12.3 10 Sudoeste 29 Sudoeste 0 -- -- 93
2021-01-20 11:00:00 10.8 11 Sudoeste 27 Sudoeste 0 -- -- 94
2021-01-20 10:00:00 9.3 11 Sudoeste 22 Sudoeste 0 -- -- 93
2021-01-20 09:00:00 9.7 12 Sudoeste 41 Sudeste 0.4 -- -- 95
2021-01-20 08:00:00 9.7 9 Sudoeste 33 Oeste 13.4 -- -- 95
2021-01-20 07:00:00 10.4 11 Sur 32 Sur 7.4 -- -- 95
2021-01-20 06:00:00 11.1 21 Sur 40 Sur 1 -- -- 88
2021-01-20 05:00:00 12.2 22 Sur 36 Sur 0 -- -- 74
2021-01-20 04:00:00 11.7 16 Sur 33 Sudeste 0 -- -- 75
2021-01-20 03:00:00 11.6 17 Sur 31 Sur 0 -- -- 75
2021-01-20 02:00:00 11.4 13 Sur 24 Sudeste 0 -- -- 78
2021-01-20 01:00:00 11.1 12 Sudeste 23 Sudeste 0 -- -- 76
2021-01-20 00:00:00 11 11 Sudeste 21 Sudeste 0 -- -- 76
2021-01-19 23:00:00 10.9 9 Sur 22 Sur 0 -- -- 77
2021-01-19 22:00:00 11 10 Sur 17 Sudeste 0 -- -- 75
2021-01-19 21:00:00 10.8 7 Sudeste 18 Sudeste 0 -- -- 75
2021-01-19 20:00:00 9.9 6 Sudeste 11 Sudeste 0 -- -- 83
2021-01-19 19:00:00 9.9 3 Sudeste 6 Sudeste 0 -- -- 83
2021-01-19 18:00:00 10.5 2 Nordeste 5 Este 0 -- -- 81
2021-01-19 17:00:00 11 0 Calma 5 Nordeste 0 -- -- 78
2021-01-19 16:00:00 11.1 3 Nordeste 6 Nordeste 0 -- -- 72
2021-01-19 15:00:00 10.7 3 Este 8 Este 0 -- -- 71
2021-01-19 14:00:00 9.7 3 Este 9 Nordeste 0 -- -- 73
2021-01-19 13:00:00 7.6 4 Nordeste 9 Nordeste 0 -- -- 79
2021-01-19 12:00:00 5.2 3 Nordeste 8 Nordeste 0 -- -- 87
2021-01-19 11:00:00 2.4 4 Nordeste 8 Norte 0 -- -- 99
2021-01-19 10:00:00 -1.2 3 Nordeste 5 Norte 0 -- -- 99
2021-01-19 09:00:00 -2.9 2 Nordeste 6 Norte 0 -- -- 96
2021-01-19 08:00:00 -3.4 0 Calma 2 Oeste 0 -- -- 96
2021-01-19 07:00:00 -2.8 0 Calma 6 Este 0 -- -- 96
2021-01-19 06:00:00 -2.8 0 Calma 5 Noroeste 0 -- -- 96
2021-01-19 05:00:00 -2.5 0 Calma 4 Nordeste 0 -- -- 96
2021-01-19 04:00:00 -2.3 0 Calma 5 Norte 0 -- -- 95
2021-01-19 03:00:00 -1.7 0 Calma 8 Sudoeste 0 -- -- 93
2021-01-19 02:00:00 -1.2 2 Sudeste 3 Sudeste 0 -- -- 94
2021-01-19 01:00:00 -0.5 2 Este 5 Norte 0 -- -- 93
2021-01-19 00:00:00 -0.1 3 Noroeste 4 Noroeste 0 -- -- 91
2021-01-18 23:00:00 0.6 0 Calma 6 Norte 0 -- -- 88
2021-01-18 22:00:00 1.7 0 Calma 3 Norte 0 -- -- 82
2021-01-18 21:00:00 3 0 Calma 2 Oeste 0 -- -- 75
2021-01-18 20:00:00 5.7 0 Calma 4 Oeste 0 -- -- 66
2021-01-18 19:00:00 9 3 Oeste 4 Oeste 0 -- -- 59
2021-01-18 18:00:00 13.3 2 Oeste 4 Sur 0 -- -- 51
2021-01-18 17:00:00 16.1 3 Sur 7 Sudeste 0 -- -- 43
2021-01-18 16:00:00 15.5 4 Este 10 Este 0 -- -- 49
2021-01-18 15:00:00 14.6 5 Nordeste 9 Este 0 -- -- 52
2021-01-18 14:00:00 12.5 5 Nordeste 16 Este 0 -- -- 60
2021-01-18 13:00:00 9.9 8 Este 14 Este 0 -- -- 66
2021-01-18 12:00:00 6.1 6 Nordeste 13 Nordeste 0 -- -- 82
2021-01-18 11:00:00 2.7 6 Nordeste 10 Nordeste 0 -- -- 100
2021-01-18 10:00:00 -0.4 4 Nordeste 10 Este 0 -- -- 99
2021-01-18 09:00:00 -2.9 2 Norte 6 Nordeste 0 -- -- 97
2021-01-18 08:00:00 -2.8 3 Norte 8 Norte 0 -- -- 98
2021-01-18 07:00:00 -1.9 0 Calma 6 Este 0 -- -- 98
2021-01-18 06:00:00 -1.7 4 Nordeste 7 Nordeste 0 -- -- 98
2021-01-18 05:00:00 -1.8 2 Nordeste 6 Norte 0 -- -- 97
2021-01-18 04:00:00 -2.1 0 Calma 3 Noroeste 0 -- -- 96
2021-01-18 03:00:00 -1.4 0 Calma 2 Nordeste 0 -- -- 97
2021-01-18 02:00:00 -1.4 0 Calma 3 Nordeste 0 -- -- 95
2021-01-18 01:00:00 -0.8 0 Calma 4 Sur 0 -- -- 94
2021-01-18 00:00:00 0.1 0 Calma 3 Norte 0 -- -- 94
2021-01-17 23:00:00 1 0 Calma 8 Norte 0 -- -- 91
2021-01-17 22:00:00 1.7 5 Norte 8 Norte 0 -- -- 89
2021-01-17 21:00:00 3.1 0 Calma 5 Norte 0 -- -- 86
2021-01-17 20:00:00 5 4 Norte 8 Noroeste 0 -- -- 83
2021-01-17 19:00:00 8.5 0 Calma 5 Sudeste 0 -- -- 70
2021-01-17 18:00:00 12.9 2 Sudeste 4 Este 0 -- -- 63
2021-01-17 17:00:00 15.3 2 Este 8 Sudeste 0 -- -- 51
2021-01-17 16:00:00 15.3 2 Este 8 Este 0 -- -- 50
2021-01-17 15:00:00 14.1 3 Este 8 Nordeste 0 -- -- 60
2021-01-17 14:00:00 11.4 5 Nordeste 11 Nordeste 0 -- -- 69
2021-01-17 13:00:00 8.9 3 Nordeste 13 Este 0 -- -- 77
2021-01-17 12:00:00 5.1 5 Nordeste 9 Nordeste 0 -- -- 94
2021-01-17 11:00:00 1.1 2 Nordeste 5 Este 0 -- -- 100
2021-01-17 10:00:00 -2.5 0 Calma 3 Nordeste 0 -- -- 98
2021-01-17 09:00:00 -3.5 3 Norte 5 Norte 0 -- -- 97
2021-01-17 08:00:00 -3.4 2 Noroeste 4 Norte 0 -- -- 97
2021-01-17 07:00:00 -3 2 Norte 7 Nordeste 0 -- -- 98
2021-01-17 06:00:00 -2.3 2 Norte 5 Nordeste 0 -- -- 98
2021-01-17 05:00:00 -2.2 2 Nordeste 7 Norte 0 -- -- 98
2021-01-17 04:00:00 -1.6 2 Nordeste 6 Norte 0 -- -- 98
2021-01-17 03:00:00 -2.1 3 Nordeste 5 Norte 0 -- -- 97
2021-01-17 02:00:00 -1 2 Este 6 Norte 0 -- -- 97
2021-01-17 01:00:00 -0.4 4 Norte 8 Noroeste 0 -- -- 96
2021-01-17 00:00:00 -0.5 3 Nordeste 4 Nordeste 0 -- -- 95
2021-01-16 23:00:00 0.6 2 Sudeste 4 Sudeste 0 -- -- 91
2021-01-16 22:00:00 1.7 2 Noroeste 5 Norte 0 -- -- 88
2021-01-16 21:00:00 2.8 5 Norte 8 Noroeste 0 -- -- 90
2021-01-16 20:00:00 4.1 3 Norte 5 Norte 0 -- -- 85
2021-01-16 19:00:00 7.4 2 Norte 4 Norte 0 -- -- 77
2021-01-16 18:00:00 11.7 0 Calma 9 Norte 0 -- -- 66
2021-01-16 17:00:00 13.7 6 Nordeste 11 Norte 0 -- -- 59
2021-01-16 16:00:00 13.3 6 Nordeste 10 Norte 0 -- -- 62
2021-01-16 15:00:00 11.8 4 Nordeste 9 Nordeste 0 -- -- 69
2021-01-16 14:00:00 9 4 Nordeste 9 Este 0 -- -- 77
2021-01-16 13:00:00 5.2 3 Nordeste 8 Este 0 -- -- 96
2021-01-16 12:00:00 1.4 2 Norte 7 Nordeste 0 -- -- 100
2021-01-16 11:00:00 -0.8 2 Norte 4 Norte 0 -- -- 100
2021-01-16 10:00:00 -2.3 0 Calma 2 Norte 0 -- -- 99
2021-01-16 09:00:00 -2.3 0 Calma 3 Nordeste 0 -- -- 99
2021-01-16 08:00:00 -2.9 0 Calma 2 Noroeste 0 -- -- 99
2021-01-16 07:00:00 -3.1 0 Calma 6 Este 0 -- -- 98
2021-01-16 06:00:00 -2.6 3 Nordeste 5 Nordeste 0 -- -- 99
2021-01-16 05:00:00 -3.1 0 Calma 3 Sudoeste 0 -- -- 98
2021-01-16 04:00:00 -2.4 0 Calma 2 Nordeste 0 -- -- 98
2021-01-16 03:00:00 -1.3 0 Calma 6 Nordeste 0 -- -- 98
2021-01-16 02:00:00 -1.1 4 Nordeste 7 Norte 0 -- -- 97
2021-01-16 01:00:00 -0.7 3 Norte 4 Norte 0 -- -- 97
2021-01-16 00:00:00 0.6 0 Calma 8 Nordeste 0 -- -- 97
2021-01-15 23:00:00 -0.5 3 Norte 5 Norte 0 -- -- 94
2021-01-15 22:00:00 1.4 0 Calma 4 Norte 0 -- -- 95
2021-01-15 21:00:00 1.8 0 Calma 2 Sudoeste 0 -- -- 91
2021-01-15 20:00:00 4.1 2 Sur 3 Oeste 0 -- -- 88
2021-01-15 19:00:00 6.6 2 Sudoeste 4 Sudoeste 0 -- -- 82
2021-01-15 18:00:00 9.5 0 Calma 4 Sudeste 0 -- -- 77
2021-01-15 17:00:00 11.7 3 Sur 9 Sur 0 -- -- 67
2021-01-15 16:00:00 10.2 5 Sur 12 Sur 0 -- -- 70
2021-01-15 15:00:00 7.7 4 Sudeste 9 Sudeste 0 -- -- 79
2021-01-15 14:00:00 4.7 2 Norte 7 Norte 0 -- -- 100
2021-01-15 13:00:00 1.6 3 Norte 8 Norte 0 -- -- 100
2021-01-15 12:00:00 0 0 Calma -- -- 0 -- -- 100
2021-01-15 11:00:00 -0.6 0 Calma -- -- 0 -- -- 100
2021-01-15 10:00:00 -1.3 0 Calma -- -- 0 -- -- 100
2021-01-15 09:00:00 -2 0 Calma -- -- 0 -- -- 99
2021-01-15 08:00:00 -2.1 0 Calma -- -- 0 -- -- 99
2021-01-15 07:00:00 -2.3 0 Calma 3 Norte 0 -- -- 99
2021-01-15 06:00:00 -2.4 0 Calma 5 Norte 0 -- -- 99
2021-01-15 05:00:00 -2.7 3 Norte 8 Norte 0 -- -- 99
2021-01-15 04:00:00 -2.3 0 Calma 7 Noroeste 0 -- -- 98
2021-01-15 03:00:00 -2 0 Calma 5 Nordeste 0 -- -- 98
2021-01-15 02:00:00 -2.2 0 Calma 2 Sur 0 -- -- 96
2021-01-15 01:00:00 -1.5 0 Calma 3 Este 0 -- -- 96
2021-01-15 00:00:00 -0.7 0 Calma 3 Nordeste 0 -- -- 96
2021-01-14 23:00:00 0 3 Nordeste 4 Este 0 -- -- 96
2021-01-14 22:00:00 1 3 Nordeste 5 Nordeste 0 -- -- 95
2021-01-14 21:00:00 1.8 2 Norte 5 Sur 0 -- -- 93
2021-01-14 20:00:00 3.6 5 Sudoeste 8 Sudoeste 0 -- -- 89
2021-01-14 19:00:00 6.3 2 Sur 5 Sur 0 -- -- 87
2021-01-14 18:00:00 9.3 4 Sur 7 Sur 0 -- -- 80
2021-01-14 17:00:00 10.8 3 Sur 8 Oeste 0 -- -- 74
2021-01-14 16:00:00 8.9 5 Sudoeste 8 Sudoeste 0 -- -- 80
2021-01-14 15:00:00 5.6 5 Sur 8 Sur 0 -- -- 93
2021-01-14 14:00:00 3.1 3 Sudoeste 8 Sudoeste 0 -- -- 100
2021-01-14 13:00:00 1.7 0 Calma 7 Sur 0 -- -- 100
2021-01-14 12:00:00 0.6 3 Sur 6 Sur 0 -- -- 100
2021-01-14 11:00:00 -0.4 3 Sur 6 Sur 0 -- -- 100
2021-01-14 10:00:00 -0.7 0 Calma 5 Sur 0 -- -- 99
2021-01-14 09:00:00 -0.7 0 Calma 4 Norte 0 -- -- 99
2021-01-14 08:00:00 -0.9 0 Calma 3 Noroeste 0 -- -- 99
2021-01-14 07:00:00 -0.9 0 Calma 3 Norte 0 -- -- 99
2021-01-14 06:00:00 -2.3 2 Norte 4 Nordeste 0 -- -- 98
2021-01-14 05:00:00 -3.1 0 Calma 3 Sudeste 0 -- -- 97
2021-01-14 04:00:00 -1.9 0 Calma 4 Norte 0 -- -- 97
2021-01-14 03:00:00 -2 2 Nordeste 4 Este 0 -- -- 95
2021-01-14 02:00:00 -1.5 3 Este 6 Noroeste 0 -- -- 95
2021-01-14 01:00:00 -1.6 0 Calma 2 Norte 0 -- -- 93
2021-01-14 00:00:00 -1.1 0 Calma 4 Sur 0 -- -- 91
2021-01-13 23:00:00 -0.1 3 Sudoeste 5 Sudoeste 0 -- -- 89
2021-01-13 22:00:00 0.9 2 Sudoeste 6 Sudoeste 0 -- -- 89
2021-01-13 21:00:00 2.1 3 Sudoeste 4 Sudoeste 0 -- -- 83
2021-01-13 20:00:00 4.2 0 Calma 5 Sudoeste 0 -- -- 78
2021-01-13 19:00:00 7.3 4 Sudoeste 6 Sudoeste 0 -- -- 72
2021-01-13 18:00:00 10.6 3 Sur 7 Sur 0 -- -- 62
2021-01-13 17:00:00 13.5 4 Sudoeste 9 Sur 0 -- -- 47
2021-01-13 16:00:00 13.3 3 Sudeste 9 Sur 0 -- -- 44
2021-01-13 15:00:00 12.1 3 Nordeste 7 Sudeste 0 -- -- 48
2021-01-13 14:00:00 10 3 Sudeste 6 Sudeste 0 -- -- 53
2021-01-13 13:00:00 6.9 2 Nordeste 8 Este 0 -- -- 68
2021-01-13 12:00:00 2.8 4 Nordeste 10 Nordeste 0 -- -- 88
2021-01-13 11:00:00 -1.1 3 Nordeste 6 Nordeste 0 -- -- 99
2021-01-13 10:00:00 -3.8 2 Norte 4 Norte 0 -- -- 97
2021-01-13 09:00:00 -5 0 Calma 4 Este 0 -- -- 96
2021-01-13 08:00:00 -5 0 Calma 3 Nordeste 0 -- -- 95
2021-01-13 07:00:00 -5.1 0 Calma 3 Norte 0 -- -- 95
2021-01-13 06:00:00 -4.6 0 Calma 3 Norte 0 -- -- 95
2021-01-13 05:00:00 -4.1 0 Calma 4 Norte 0 -- -- 95
2021-01-13 04:00:00 -3.9 0 Calma 4 Nordeste 0 -- -- 95
2021-01-13 03:00:00 -3.9 3 Norte 7 Norte 0 -- -- 93
2021-01-13 02:00:00 -3.3 0 Calma 5 Norte 0 -- -- 93
2021-01-13 01:00:00 -2.8 2 Nordeste 4 Norte 0 -- -- 91
2021-01-13 00:00:00 -2.1 0 Calma 4 Norte 0 -- -- 91
2021-01-12 23:00:00 -1.6 0 Calma 2 Norte 0 -- -- 87
2021-01-12 22:00:00 -0.4 0 Calma 4 Norte 0 -- -- 85
2021-01-12 21:00:00 0.4 3 Norte 8 Noroeste 0 -- -- 82
2021-01-12 20:00:00 2.3 0 Calma 2 Noroeste 0 -- -- 74
2021-01-12 19:00:00 5.2 0 Calma 4 Este 0 -- -- 66
2021-01-12 18:00:00 8.6 3 Nordeste 6 Nordeste 0 -- -- 50
2021-01-12 17:00:00 11.1 3 Este 7 Este 0 -- -- 42
2021-01-12 16:00:00 11.1 4 Nordeste 10 Nordeste 0 -- -- 40
2021-01-12 15:00:00 10.8 2 Norte 10 Sur 0 -- -- 50
2021-01-12 14:00:00 8.9 2 Sudeste 9 Norte 0 -- -- 56
2021-01-12 13:00:00 6.7 3 Este 12 Este 0 -- -- 61
2021-01-12 12:00:00 2.9 4 Nordeste 10 Nordeste 0 -- -- 81
2021-01-12 11:00:00 0.3 8 Nordeste 10 Norte 0 -- -- 94
2021-01-12 10:00:00 -3 5 Norte 6 Nordeste 0 -- -- 98
2021-01-12 09:00:00 -4.8 3 Norte 5 Norte 0 -- -- 94
2021-01-12 08:00:00 -4.3 0 Calma 4 Nordeste 0 -- -- 93
2021-01-12 07:00:00 -3.9 0 Calma 3 Nordeste 0 -- -- 92
2021-01-12 06:00:00 -3.1 0 Calma 8 Norte 0 -- -- 94
2021-01-12 05:00:00 -4 3 Norte 5 Norte 0 -- -- 92
2021-01-12 04:00:00 -3.5 0 Calma 4 Norte 0 -- -- 92
2021-01-12 03:00:00 -3 3 Norte 5 Norte 0 -- -- 91
2021-01-12 02:00:00 -2.5 0 Calma 4 Norte 0 -- -- 89
2021-01-12 01:00:00 -1.2 0 Calma 8 Nordeste 0 -- -- 87
2021-01-12 00:00:00 0 3 Noroeste 10 Norte 0 -- -- 81
2021-01-11 23:00:00 1.1 9 Norte 16 Norte 0 -- -- 79
2021-01-11 22:00:00 1.4 4 Norte 16 Norte 0 -- -- 80
2021-01-11 21:00:00 2.7 14 Norte 18 Norte 0 -- -- 76
2021-01-11 20:00:00 3.2 12 Norte 14 Norte 0 -- -- 75
2021-01-11 19:00:00 4.8 8 Norte 11 Norte 0 -- -- 71
2021-01-11 18:00:00 8.6 5 Nordeste 17 Nordeste 0 -- -- 54
2021-01-11 17:00:00 10.9 9 Nordeste 22 Nordeste 0 -- -- 48
2021-01-11 16:00:00 11.2 14 Norte 22 Norte 0 -- -- 47
2021-01-11 15:00:00 11.2 13 Norte 24 Norte 0 -- -- 51
2021-01-11 14:00:00 10.6 12 Norte 26 Norte 0 -- -- 55
2021-01-11 13:00:00 9.1 11 Nordeste 22 Nordeste 0 -- -- 57
2021-01-11 12:00:00 7.1 15 Norte 24 Norte 0 -- -- 66
2021-01-11 11:00:00 2.4 6 Norte 9 Nordeste 0 -- -- 80
2021-01-11 10:00:00 -0.4 0 Calma 6 Norte 0 -- -- 90
2021-01-11 09:00:00 -1.1 2 Norte 5 Nordeste 0 -- -- 89
2021-01-11 08:00:00 0.2 4 Nordeste 17 Nordeste 0 -- -- 84
2021-01-11 07:00:00 -1.2 7 Norte 12 Norte 0 -- -- 91
2021-01-11 06:00:00 -0.6 5 Norte 10 Nordeste 0 -- -- 89
2021-01-11 05:00:00 0.7 8 Norte 23 Norte 0 -- -- 85
2021-01-11 04:00:00 1.3 13 Nordeste 19 Norte 0 -- -- 87
2021-01-11 03:00:00 0.7 5 Nordeste 15 Norte 0 -- -- 88
2021-01-11 02:00:00 0.9 11 Nordeste 16 Norte 0 -- -- 89
2021-01-11 01:00:00 1.8 15 Norte 20 Nordeste 0 -- -- 87
2021-01-11 00:00:00 1.5 15 Norte 20 Norte 0 -- -- 90
2021-01-10 23:00:00 0.4 6 Norte 14 Norte 0 -- -- 91
2021-01-10 22:00:00 1.3 7 Norte 14 Norte 0 -- -- 89
2021-01-10 21:00:00 2.2 10 Norte 18 Norte 0 -- -- 86
2021-01-10 20:00:00 4 15 Norte 21 Nordeste 0 -- -- 80
2021-01-10 19:00:00 4.9 12 Norte 27 Norte 0 -- -- 78
2021-01-10 18:00:00 7.6 17 Norte 32 Norte 0 -- -- 67
2021-01-10 17:00:00 9.4 19 Norte 34 Nordeste 0 -- -- 63
2021-01-10 16:00:00 8.8 15 Nordeste 29 Norte 0 -- -- 66
2021-01-10 15:00:00 10.4 17 Norte 25 Norte 0 -- -- 64
2021-01-10 14:00:00 10.1 10 Norte 24 Norte 0 -- -- 67
2021-01-10 13:00:00 8.7 9 Norte 18 Nordeste 0 -- -- 76
2021-01-10 12:00:00 5.8 8 Nordeste 17 Norte 0 -- -- 88
2021-01-10 11:00:00 3.5 6 Nordeste 24 Norte 0 -- -- 92
2021-01-10 10:00:00 2.5 19 Nordeste 27 Norte 0 -- -- 95
2021-01-10 09:00:00 1.4 21 Norte 26 Norte 0 -- -- 97
2021-01-10 08:00:00 1.2 19 Norte 24 Norte 0 -- -- 96
2021-01-10 07:00:00 1.4 12 Norte 16 Norte 0 -- -- 97
2021-01-10 06:00:00 2.3 14 Norte 20 Nordeste 0 -- -- 95
2021-01-10 05:00:00 3.3 13 Norte 17 Norte 0 -- -- 97
2021-01-10 04:00:00 3 9 Norte 15 Nordeste 0 -- -- 97
2021-01-10 03:00:00 2.6 13 Norte 17 Nordeste 0 -- -- 97
2021-01-10 02:00:00 2.6 8 Norte 11 Norte 0 -- -- 97
2021-01-10 01:00:00 2.6 8 Norte 13 Nordeste 0 -- -- 97
2021-01-10 00:00:00 2.7 9 Norte 11 Norte 0 -- -- 98
2021-01-09 23:00:00 2.4 4 Norte 11 Norte 0 -- -- 98
2021-01-09 22:00:00 2.4 5 Norte 15 Noroeste 0 -- -- 97
2021-01-09 21:00:00 2.4 7 Norte 20 Norte 0.2 -- -- 97
2021-01-09 20:00:00 2.5 5 Noroeste 9 Noroeste 0.4 -- -- 96
2021-01-09 19:00:00 2.7 4 Noroeste 9 Noroeste 0.2 -- -- 96
2021-01-09 18:00:00 2.8 5 Noroeste 11 Noroeste 0.4 -- -- 95
2021-01-09 17:00:00 3 6 Noroeste 14 Noroeste 0.4 -- -- 95
2021-01-09 16:00:00 3.2 6 Noroeste 14 Noroeste 0.4 -- -- 93
2021-01-09 15:00:00 3.1 2 Norte 9 Norte 0.2 -- -- 93
2021-01-09 14:00:00 3.6 2 Este 8 Norte 0.2 -- -- 88
2021-01-09 13:00:00 4.2 3 Norte 15 Noroeste 0 -- -- 82
2021-01-09 12:00:00 4.6 8 Oeste 18 Noroeste 0 -- -- 76
2021-01-09 11:00:00 4.4 9 Noroeste 14 Noroeste 0 -- -- 75
2021-01-09 10:00:00 4 6 Noroeste 13 Noroeste 0 -- -- 77
2021-01-09 09:00:00 3.9 4 Noroeste 14 Noroeste 0 -- -- 78
2021-01-09 08:00:00 3.9 10 Noroeste 21 Norte 0 -- -- 77
2021-01-09 07:00:00 4.1 12 Noroeste 20 Noroeste 0 -- -- 77
2021-01-09 06:00:00 4.2 15 Noroeste 30 Norte 0 -- -- 76
2021-01-09 05:00:00 4.4 12 Noroeste 25 Noroeste 0 -- -- 77
2021-01-09 04:00:00 4.4 14 Noroeste 27 Noroeste 0 -- -- 78
2021-01-09 03:00:00 4.5 14 Noroeste 25 Norte 0 -- -- 79
2021-01-09 02:00:00 4.6 13 Norte 27 Norte 0 -- -- 83
2021-01-09 01:00:00 4.6 21 Norte 28 Norte 0 -- -- 85
2021-01-09 00:00:00 4.5 20 Norte 31 Norte 0 -- -- 86
2021-01-08 23:00:00 4.5 21 Norte 33 Norte 0 -- -- 88
2021-01-08 22:00:00 4.5 24 Norte 36 Norte 0 -- -- 89
2021-01-08 21:00:00 4.6 21 Norte 30 Norte 0 -- -- 90
2021-01-08 20:00:00 4.6 22 Norte 33 Nordeste 0 -- -- 92
2021-01-08 19:00:00 4.5 17 Nordeste 36 Nordeste 0.6 -- -- 92
2021-01-08 18:00:00 4.5 20 Nordeste 40 Nordeste 1.6 -- -- 93
2021-01-08 17:00:00 5.3 19 Nordeste 31 Nordeste 0.4 -- -- 88
2021-01-08 16:00:00 7.1 17 Nordeste 32 Nordeste 0 -- -- 76
2021-01-08 15:00:00 6.7 13 Nordeste 32 Nordeste 0 -- -- 77
2021-01-08 14:00:00 7.2 18 Nordeste 35 Nordeste 0 -- -- 70
2021-01-08 13:00:00 6.5 23 Nordeste 36 Nordeste 0 -- -- 72
2021-01-08 12:00:00 5.8 22 Nordeste 37 Norte 0 -- -- 72
2021-01-08 11:00:00 4.8 24 Nordeste 37 Nordeste 0 -- -- 75
2021-01-08 10:00:00 3.7 21 Nordeste 35 Nordeste 0 -- -- 77
2021-01-08 09:00:00 3.2 22 Nordeste 34 Nordeste 0 -- -- 75
2021-01-08 08:00:00 3 23 Nordeste 32 Norte 0 -- -- 76
2021-01-08 07:00:00 2.9 21 Norte 27 Norte 0 -- -- 79
2021-01-08 06:00:00 2.6 18 Norte 26 Nordeste 0 -- -- 83
2021-01-08 05:00:00 2.6 20 Nordeste 30 Nordeste 0 -- -- 83
2021-01-08 04:00:00 2.8 18 Nordeste 27 Norte 0 -- -- 84
2021-01-08 03:00:00 2.1 10 Nordeste 16 Nordeste 0 -- -- 88
2021-01-08 02:00:00 2.5 13 Nordeste 25 Nordeste 0 -- -- 87
2021-01-08 01:00:00 2.8 17 Nordeste 24 Norte 0 -- -- 86
2021-01-08 00:00:00 3.6 13 Nordeste 23 Nordeste 0 -- -- 84
2021-01-07 23:00:00 3.8 10 Nordeste 19 Nordeste 0 -- -- 85
2021-01-07 22:00:00 4.4 11 Nordeste 22 Nordeste 0 -- -- 83
2021-01-07 21:00:00 5.3 14 Nordeste 21 Nordeste 0 -- -- 80
2021-01-07 20:00:00 6.6 10 Nordeste 15 Nordeste 0 -- -- 78
2021-01-07 19:00:00 6.7 7 Nordeste 22 Nordeste 0 -- -- 77
2021-01-07 18:00:00 7.7 13 Nordeste 25 Nordeste 0 -- -- 72
2021-01-07 17:00:00 8.3 12 Nordeste 22 Este 0 -- -- 69
2021-01-07 16:00:00 9.4 14 Nordeste 26 Nordeste 0 -- -- 66
2021-01-07 15:00:00 9.5 12 Nordeste 25 Norte 0 -- -- 66
2021-01-07 14:00:00 8 12 Nordeste 24 Norte 0 -- -- 69
2021-01-07 13:00:00 7.5 16 Nordeste 26 Norte 0 -- -- 71
2021-01-07 12:00:00 6.5 18 Norte 26 Norte 0 -- -- 75
2021-01-07 11:00:00 5.1 13 Nordeste 22 Nordeste 0 -- -- 77
2021-01-07 10:00:00 4.1 13 Norte 20 Nordeste 0 -- -- 79
2021-01-07 09:00:00 3.9 12 Nordeste 19 Norte 0 -- -- 75
2021-01-07 08:00:00 4 9 Nordeste 15 Nordeste 0 -- -- 74
2021-01-07 07:00:00 4.2 10 Nordeste 17 Nordeste 0 -- -- 75
2021-01-07 06:00:00 3.7 11 Norte 17 Norte 0 -- -- 79
2021-01-07 05:00:00 3.9 15 Norte 21 Norte 0 -- -- 77
2021-01-07 04:00:00 3.9 17 Norte 22 Norte 0 -- -- 76
2021-01-07 03:00:00 3.7 14 Nordeste 20 Norte 0 -- -- 75
2021-01-07 02:00:00 3.4 12 Norte 17 Nordeste 0 -- -- 78
2021-01-07 01:00:00 3.4 12 Nordeste 19 Nordeste 0 -- -- 77
2021-01-07 00:00:00 3.9 6 Nordeste 21 Nordeste 0 -- -- 75
2021-01-06 23:00:00 4.6 12 Nordeste 21 Nordeste 0 -- -- 72
2021-01-06 22:00:00 5 16 Nordeste 24 Nordeste 0 -- -- 72
2021-01-06 21:00:00 4.7 17 Norte 20 Norte 0 -- -- 78
2021-01-06 20:00:00 5.2 11 Nordeste 14 Norte 0 -- -- 74
2021-01-06 19:00:00 6.3 7 Nordeste 14 Nordeste 0 -- -- 68
2021-01-06 18:00:00 7.1 5 Nordeste 19 Nordeste 0 -- -- 63
2021-01-06 17:00:00 8.1 8 Este 22 Este 0 -- -- 58
2021-01-06 16:00:00 8.5 9 Nordeste 19 Nordeste 0 -- -- 60
2021-01-06 15:00:00 7.1 9 Este 20 Este 0 -- -- 66
2021-01-06 14:00:00 6.6 8 Nordeste 22 Nordeste 0 -- -- 72
2021-01-06 13:00:00 4.4 7 Nordeste 18 Nordeste 0 -- -- 84
2021-01-06 12:00:00 0.8 6 Nordeste 12 Nordeste 0 -- -- 100
2021-01-06 11:00:00 -0.8 0 Calma -- -- 0 -- -- 100
2021-01-06 10:00:00 -1.6 0 Calma -- -- 0 -- -- 100
2021-01-06 09:00:00 -1.3 0 Calma -- -- 0 -- -- 100
2021-01-06 08:00:00 -0.9 0 Calma -- -- 0 -- -- 100
2021-01-06 07:00:00 -1.1 0 Calma -- -- 0 -- -- 100
2021-01-06 06:00:00 -0.3 0 Calma 9 Nordeste 0 -- -- 100
2021-01-06 05:00:00 0.1 4 Nordeste 11 Nordeste 0 -- -- 100
2021-01-06 04:00:00 0.9 5 Nordeste 11 Nordeste 0 -- -- 100
2021-01-06 03:00:00 1.4 5 Norte 14 Norte 0 -- -- 100
2021-01-06 02:00:00 2 6 Nordeste 13 Norte 0 -- -- 99
2021-01-06 01:00:00 2.3 4 Nordeste 10 Norte 0 -- -- 99
2021-01-06 00:00:00 2.3 2 Nordeste 7 Este 0 -- -- 99
2021-01-05 23:00:00 2.5 3 Nordeste 9 Este 0 -- -- 98
2021-01-05 22:00:00 2.9 3 Nordeste 9 Nordeste 0 -- -- 98
2021-01-05 21:00:00 3.1 5 Nordeste 11 Nordeste 0 -- -- 98
2021-01-05 20:00:00 3.2 5 Nordeste 12 Nordeste 0 -- -- 97
2021-01-05 19:00:00 3.3 7 Nordeste 11 Nordeste 0 -- -- 97
2021-01-05 18:00:00 3.5 3 Nordeste 10 Nordeste 0 -- -- 98
2021-01-05 17:00:00 3.3 6 Nordeste 13 Nordeste 0 -- -- 99
2021-01-05 16:00:00 3.2 5 Nordeste 14 Sudeste 0 -- -- 100
2021-01-05 15:00:00 2.8 6 Nordeste 17 Sudeste 0 -- -- 100
2021-01-05 14:00:00 2.8 4 Nordeste 12 Nordeste 0 -- -- 100
2021-01-05 13:00:00 2 4 Nordeste 12 Nordeste 0 -- -- 100
2021-01-05 12:00:00 1.4 4 Nordeste 12 Nordeste 0 -- -- 100
2021-01-05 11:00:00 0.7 4 Nordeste 10 Nordeste 0 -- -- 100
2021-01-05 10:00:00 -0.4 4 Nordeste 8 Este 0 -- -- 100
2021-01-05 09:00:00 -1.2 0 Calma 7 Nordeste 0 -- -- 100
2021-01-05 08:00:00 -2.2 3 Nordeste 6 Nordeste 0 -- -- 99
2021-01-05 07:00:00 -1.8 0 Calma 3 Sudeste 0 -- -- 99
2021-01-05 06:00:00 -2.4 0 Calma 6 Noroeste 0 -- -- 99
2021-01-05 05:00:00 -2.3 3 Norte 5 Norte 0 -- -- 98
2021-01-05 04:00:00 -1.2 0 Calma 4 Sur 0 -- -- 98
2021-01-05 03:00:00 -0.6 3 Nordeste 10 Nordeste 0 -- -- 98
2021-01-05 02:00:00 -1 3 Norte 5 Norte 0 -- -- 97
2021-01-05 01:00:00 -0.3 2 Oeste 6 Noroeste 0 -- -- 97
2021-01-05 00:00:00 0.4 0 Calma 4 Norte 0 -- -- 96
2021-01-04 23:00:00 1 2 Nordeste 3 Norte 0 -- -- 95
2021-01-04 22:00:00 1.8 2 Sur 5 Sudoeste 0 -- -- 91
2021-01-04 21:00:00 3.5 0 Calma 10 Sudoeste 0 -- -- 88
2021-01-04 20:00:00 6.4 6 Oeste 17 Sudoeste 0 -- -- 83
2021-01-04 19:00:00 8.3 9 Oeste 21 Oeste 0 -- -- 74
2021-01-04 18:00:00 9.1 8 Oeste 20 Oeste 0 -- -- 68
2021-01-04 17:00:00 10.7 10 Oeste 22 Oeste 0 -- -- 61
2021-01-04 16:00:00 10.7 14 Oeste 27 Oeste 0 -- -- 62
2021-01-04 15:00:00 10.1 11 Oeste 22 Oeste 0 -- -- 69
2021-01-04 14:00:00 8.7 6 Sur 15 Sudoeste 0 -- -- 85
2021-01-04 13:00:00 6.8 9 Sudoeste 16 Sudoeste 0 -- -- 89
2021-01-04 12:00:00 5 8 Sudoeste 19 Sudoeste 0 -- -- 94
2021-01-04 11:00:00 3.7 8 Sudoeste 13 Sudoeste 0 -- -- 99
2021-01-04 10:00:00 1.8 5 Sudoeste 12 Sur 0 -- -- 99
2021-01-04 09:00:00 1.2 3 Sudoeste 8 Sudoeste 0 -- -- 99
2021-01-04 08:00:00 1.1 0 Calma 4 Sur 0 -- -- 98
2021-01-04 07:00:00 1.1 0 Calma 12 Sudoeste 0 -- -- 98
2021-01-04 06:00:00 1.7 7 Sudoeste 16 Oeste 0 -- -- 97
2021-01-04 05:00:00 1.4 7 Oeste 13 Sudoeste 0 -- -- 97
2021-01-04 04:00:00 1.7 3 Sudoeste 10 Oeste 0 -- -- 96
2021-01-04 03:00:00 1.9 5 Sudoeste 12 Sudoeste 0 -- -- 94
2021-01-04 02:00:00 2 6 Sudoeste 10 Sudoeste 0 -- -- 94
2021-01-04 01:00:00 2.9 3 Sudoeste 11 Sudoeste 0 -- -- 91
2021-01-04 00:00:00 3.7 4 Sudoeste 19 Oeste 0 -- -- 88
2021-01-03 23:00:00 3.8 9 Oeste 17 Oeste 0 -- -- 88
2021-01-03 22:00:00 3.5 8 Oeste 13 Noroeste 0 -- -- 87
2021-01-03 21:00:00 5 6 Oeste 12 Oeste 0 -- -- 84
2021-01-03 20:00:00 5.8 10 Oeste 15 Oeste 0 -- -- 82
2021-01-03 19:00:00 6.7 5 Sudoeste 13 Oeste 0 -- -- 75
2021-01-03 18:00:00 8.5 8 Oeste 19 Oeste 0 -- -- 66
2021-01-03 17:00:00 11 12 Oeste 18 Oeste 0 -- -- 55
2021-01-03 16:00:00 11.2 8 Sudoeste 15 Sudoeste 0 -- -- 62
2021-01-03 15:00:00 10.3 6 Sur 13 Sur 0 -- -- 70
2021-01-03 14:00:00 8.8 5 Sur 14 Sur 0 -- -- 75
2021-01-03 13:00:00 6.4 5 Sudoeste 12 Sudoeste 0 -- -- 82
2021-01-03 12:00:00 2.7 5 Sudoeste 12 Sudoeste 0 -- -- 98
2021-01-03 11:00:00 0.4 4 Sudoeste 7 Oeste 0 -- -- 100
2021-01-03 10:00:00 -2.3 3 Sudoeste 5 Sudoeste 0 -- -- 99
2021-01-03 09:00:00 -3.3 2 Sudoeste 4 Sudoeste 0 -- -- 98
2021-01-03 08:00:00 -2.6 3 Sudoeste 5 Sudoeste 0 -- -- 98
2021-01-03 07:00:00 -2.9 2 Sur 3 Sur 0 -- -- 97
2021-01-03 06:00:00 -2.5 0 Calma 6 Noroeste 0 -- -- 98
2021-01-03 05:00:00 -2.6 0 Calma 4 Oeste 0 -- -- 96
2021-01-03 04:00:00 -1.8 0 Calma 5 Sudoeste 0 -- -- 97
2021-01-03 03:00:00 -0.5 0 Calma 7 Sudoeste 0 -- -- 96
2021-01-03 02:00:00 -0.5 3 Oeste 8 Oeste 0 -- -- 97
2021-01-03 01:00:00 -0.1 0 Calma 7 Nordeste 0 -- -- 93
2021-01-03 00:00:00 0.5 5 Nordeste 9 Este 0 -- -- 95
2021-01-02 23:00:00 0.2 3 Noroeste 5 Nordeste 0 -- -- 93
2021-01-02 22:00:00 0.2 4 Norte 8 Noroeste 0 -- -- 91
2021-01-02 21:00:00 1.5 2 Noroeste 6 Norte 0 -- -- 88
2021-01-02 20:00:00 3.3 4 Noroeste 9 Oeste 0 -- -- 82
2021-01-02 19:00:00 6.3 5 Oeste 9 Nordeste 0 -- -- 76
2021-01-02 18:00:00 9.3 7 Noroeste 18 Oeste 0 -- -- 64
2021-01-02 17:00:00 11.8 11 Oeste 22 Oeste 0 -- -- 56
2021-01-02 16:00:00 12.4 6 Norte 15 Oeste 0 -- -- 51
2021-01-02 15:00:00 12 6 Norte 19 Oeste 0 -- -- 57
2021-01-02 14:00:00 11.3 8 Noroeste 13 Noroeste 0 -- -- 57